Time;durP1;ratioP1;P1;durP2;ratioP2;P2;SDS_P1;SDS_P2;PMS_P1;PMS_P2;Temp;Humidity;BMP_temperature;BMP_pressure;BME280_temperature;BME280_humidity;BME280_pressure;Samples;Min_cycle;Max_cycle;Signal;HPM_P1;HPM_P2
2024/01/31 00:00:06;;;;;;;11.57;7.20;;;8.10;99.90;;;;;;5245525;28;20174;-49
2024/01/31 00:02:36;;;;;;;9.27;7.83;;;8.20;99.90;;;;;;5245948;28;20252;-48
2024/01/31 00:05:07;;;;;;;11.90;7.23;;;8.40;99.90;;;;;;5239743;28;20452;-49
2024/01/31 00:07:38;;;;;;;10.60;6.40;;;8.40;99.90;;;;;;5223870;28;20174;-49
2024/01/31 00:10:09;;;;;;;12.53;7.60;;;8.50;99.90;;;;;;5223914;28;20197;-52
2024/01/31 00:12:40;;;;;;;8.80;6.60;;;8.40;99.90;;;;;;5225453;28;20267;-49
2024/01/31 00:15:13;;;;;;;8.23;7.13;;;8.50;99.90;;;;;;5208620;28;20825;-49
2024/01/31 00:17:44;;;;;;;11.83;6.73;;;8.50;99.90;;;;;;5228234;28;20464;-48
2024/01/31 00:20:14;;;;;;;16.40;5.83;;;8.50;99.90;;;;;;5243627;28;20957;-48
2024/01/31 00:22:45;;;;;;;6.57;5.73;;;8.60;99.90;;;;;;5247263;28;20210;-48
2024/01/31 00:25:16;;;;;;;5.77;5.27;;;8.60;99.90;;;;;;5225285;28;20194;-49
2024/01/31 00:27:46;;;;;;;8.63;5.23;;;8.60;99.90;;;;;;5225182;28;20186;-48
2024/01/31 00:30:17;;;;;;;6.30;5.67;;;8.60;99.90;;;;;;5204650;28;20197;-48
2024/01/31 00:32:47;;;;;;;8.93;5.30;;;8.50;99.90;;;;;;5225197;28;20249;-48
2024/01/31 00:35:18;;;;;;;16.30;6.43;;;8.50;99.90;;;;;;5220861;28;20263;-47
2024/01/31 00:37:49;;;;;;;20.63;7.10;;;8.50;99.90;;;;;;5246667;28;20214;-47
2024/01/31 00:40:19;;;;;;;8.10;6.47;;;8.50;99.90;;;;;;5224493;28;20292;-49
2024/01/31 00:42:50;;;;;;;7.07;6.20;;;8.50;99.90;;;;;;5235182;28;20656;-48
2024/01/31 00:45:23;;;;;;;11.30;6.90;;;8.60;99.90;;;;;;5240183;28;20626;-48
2024/01/31 00:47:53;;;;;;;7.90;5.73;;;8.60;99.90;;;;;;5243644;28;20514;-48
2024/01/31 00:50:24;;;;;;;6.90;5.67;;;8.60;99.90;;;;;;5245125;28;20440;-47
2024/01/31 00:52:55;;;;;;;10.37;6.90;;;8.60;99.90;;;;;;5228936;28;20285;-48
2024/01/31 00:55:25;;;;;;;9.07;6.10;;;8.60;99.90;;;;;;5224622;28;20182;-48
2024/01/31 00:57:56;;;;;;;6.70;6.07;;;8.60;99.90;;;;;;5229008;28;20498;-47
2024/01/31 01:00:27;;;;;;;7.70;6.10;;;8.50;99.90;;;;;;5241698;28;20631;-48
2024/01/31 01:02:57;;;;;;;8.10;5.33;;;8.50;99.90;;;;;;5205805;28;20251;-47
2024/01/31 01:05:28;;;;;;;5.30;4.90;;;8.50;99.90;;;;;;5227778;28;20175;-47
2024/01/31 01:08:00;;;;;;;6.23;5.23;;;8.60;99.90;;;;;;5245185;28;20189;-48
2024/01/31 01:10:30;;;;;;;8.70;4.80;;;8.60;99.90;;;;;;5240774;28;20658;-48
2024/01/31 01:13:01;;;;;;;5.07;4.37;;;8.60;99.90;;;;;;5237017;28;20556;-47
2024/01/31 01:15:32;;;;;;;5.03;4.53;;;8.70;99.90;;;;;;5238827;28;20638;-47
2024/01/31 01:18:03;;;;;;;5.80;5.23;;;8.60;99.90;;;;;;5239857;28;20190;-48
2024/01/31 01:20:33;;;;;;;7.97;4.70;;;8.60;99.90;;;;;;5241922;28;20666;-47
2024/01/31 01:23:04;;;;;;;4.63;4.20;;;8.70;99.90;;;;;;5241630;28;20603;-49
2024/01/31 01:25:34;;;;;;;4.63;4.10;;;8.70;99.90;;;;;;5245729;28;20186;-49
2024/01/31 01:28:05;;;;;;;5.67;4.33;;;8.70;99.90;;;;;;5226012;28;20178;-49
2024/01/31 01:30:36;;;;;;;6.10;4.60;;;8.60;99.90;;;;;;5222403;28;20195;-47
2024/01/31 01:33:06;;;;;;;4.90;4.23;;;8.50;99.90;;;;;;5240380;28;20749;-48
2024/01/31 01:35:37;;;;;;;5.53;3.90;;;8.60;99.90;;;;;;5225445;28;20190;-47
2024/01/31 01:38:07;;;;;;;4.80;3.90;;;8.60;99.90;;;;;;5226496;28;20587;-47
2024/01/31 01:40:45;;;;;;;7.10;5.00;;;8.60;99.90;;;;;;5229153;28;20182;-48
2024/01/31 01:43:20;;;;;;;6.43;3.90;;;8.70;99.90;;;;;;5225108;28;20620;-49
2024/01/31 01:46:02;;;;;;;4.03;3.60;;;8.80;99.90;;;;;;5241301;28;20433;-48
2024/01/31 01:48:33;;;;;;;9.40;4.03;;;8.70;99.90;;;;;;5226448;28;20440;-48
2024/01/31 01:51:05;;;;;;;5.40;4.20;;;8.70;99.90;;;;;;5244301;28;20433;-48
2024/01/31 01:53:36;;;;;;;3.63;3.40;;;8.80;99.90;;;;;;5243236;28;20809;-47
2024/01/31 01:56:08;;;;;;;3.47;2.90;;;8.70;99.90;;;;;;5243947;28;20520;-47
2024/01/31 01:58:40;;;;;;;8.40;3.63;;;8.70;99.90;;;;;;5243569;28;20421;-48
2024/01/31 02:01:12;;;;;;;4.13;3.30;;;8.70;99.90;;;;;;5222446;28;20821;-48
2024/01/31 02:03:43;;;;;;;3.87;3.47;;;8.70;99.90;;;;;;5239070;28;20489;-48
2024/01/31 02:06:14;;;;;;;3.50;3.30;;;8.80;99.90;;;;;;5246626;28;20432;-48
2024/01/31 02:08:44;;;;;;;3.30;3.10;;;8.80;99.90;;;;;;5247960;28;20433;-48
2024/01/31 02:11:15;;;;;;;2.60;2.50;;;8.80;99.90;;;;;;5247670;28;20206;-49
2024/01/31 02:13:45;;;;;;;4.10;3.33;;;8.90;99.90;;;;;;5248084;28;20243;-49
2024/01/31 02:16:16;;;;;;;2.40;2.30;;;8.90;99.90;;;;;;5227947;28;20178;-50
2024/01/31 02:18:47;;;;;;;5.63;2.90;;;8.80;99.90;;;;;;5232017;28;20186;-49
2024/01/31 02:21:18;;;;;;;4.77;2.10;;;8.80;99.90;;;;;;5231986;28;20206;-50
2024/01/31 02:23:49;;;;;;;3.57;2.30;;;8.70;99.90;;;;;;5232073;28;20193;-48
2024/01/31 02:26:20;;;;;;;2.27;2.10;;;8.80;99.90;;;;;;5228671;28;20801;-48
2024/01/31 02:28:50;;;;;;;2.20;2.10;;;8.80;99.90;;;;;;5228456;28;20662;-48
2024/01/31 02:31:21;;;;;;;1.73;1.63;;;8.80;99.90;;;;;;5234620;28;20453;-49
2024/01/31 02:33:52;;;;;;;2.17;1.90;;;8.70;99.90;;;;;;5198884;28;20297;-49
2024/01/31 02:36:22;;;;;;;1.40;1.30;;;8.70;99.90;;;;;;5237074;28;20186;-48
2024/01/31 02:38:53;;;;;;;1.40;1.40;;;8.60;99.90;;;;;;5227410;28;20591;-48
2024/01/31 02:41:23;;;;;;;1.47;1.47;;;8.50;99.90;;;;;;5242591;28;20202;-48
2024/01/31 02:43:54;;;;;;;1.53;1.53;;;8.50;99.90;;;;;;5228333;28;20187;-49
2024/01/31 02:46:25;;;;;;;1.97;1.87;;;8.50;99.90;;;;;;5247182;28;20570;-48
2024/01/31 02:48:59;;;;;;;1.93;1.83;;;8.50;99.90;;;;;;5230398;28;20190;-48
2024/01/31 02:51:30;;;;;;;2.40;1.53;;;8.50;99.90;;;;;;5244995;28;20281;-47
2024/01/31 02:54:01;;;;;;;3.63;1.60;;;8.40;99.90;;;;;;5249769;28;20542;-49
2024/01/31 02:56:32;;;;;;;1.57;1.57;;;8.50;99.90;;;;;;5225996;28;20794;-48
2024/01/31 02:59:02;;;;;;;2.23;1.80;;;8.40;99.90;;;;;;5245884;28;20179;-48
2024/01/31 03:01:33;;;;;;;1.73;1.73;;;8.50;99.90;;;;;;5228065;28;20569;-48
2024/01/31 03:04:03;;;;;;;2.03;1.90;;;8.40;99.90;;;;;;5247774;28;20190;-48
2024/01/31 03:06:34;;;;;;;3.50;1.60;;;8.40;99.90;;;;;;5244324;28;20182;-49
2024/01/31 03:09:05;;;;;;;1.80;1.70;;;8.30;99.90;;;;;;5226696;28;20220;-49
2024/01/31 03:11:35;;;;;;;1.60;1.60;;;8.40;99.90;;;;;;5243845;28;20656;-48
2024/01/31 03:14:06;;;;;;;2.00;1.40;;;8.30;99.90;;;;;;5226839;28;21417;-49
2024/01/31 03:16:39;;;;;;;1.40;1.20;;;8.20;99.90;;;;;;5245457;28;20190;-49
2024/01/31 03:19:10;;;;;;;1.30;1.30;;;8.30;99.90;;;;;;5229202;28;20179;-48
2024/01/31 03:21:41;;;;;;;1.33;1.33;;;8.30;99.90;;;;;;5230787;28;20814;-49
2024/01/31 03:24:12;;;;;;;2.73;1.40;;;8.20;99.90;;;;;;5224829;28;20182;-48
2024/01/31 03:26:42;;;;;;;1.00;1.00;;;8.20;99.90;;;;;;5228257;28;20273;-49
2024/01/31 03:29:13;;;;;;;1.40;1.30;;;8.10;99.90;;;;;;5243379;28;20570;-53
2024/01/31 03:31:44;;;;;;;3.67;1.33;;;8.20;99.90;;;;;;5227992;28;20202;-48
2024/01/31 03:34:14;;;;;;;2.17;0.87;;;8.20;99.90;;;;;;5243395;28;20237;-48
2024/01/31 03:36:45;;;;;;;1.50;1.40;;;8.10;99.90;;;;;;5241180;28;20214;-48
2024/01/31 03:39:16;;;;;;;2.00;1.57;;;8.10;99.90;;;;;;5240070;28;20623;-47
2024/01/31 03:41:49;;;;;;;12.73;1.90;;;8.20;99.90;;;;;;5238160;28;20195;-48
2024/01/31 03:44:20;;;;;;;2.77;0.93;;;8.20;99.90;;;;;;5243894;28;21020;-48
2024/01/31 03:46:50;;;;;;;0.90;0.90;;;8.20;99.90;;;;;;5243990;28;20457;-48
2024/01/31 03:49:21;;;;;;;0.60;0.60;;;8.20;99.90;;;;;;5242578;28;20261;-49
2024/01/31 03:51:51;;;;;;;1.60;0.90;;;8.10;99.90;;;;;;5243380;28;20674;-50
2024/01/31 03:54:22;;;;;;;0.70;0.70;;;8.10;99.90;;;;;;5239766;28;20284;-49
2024/01/31 03:56:53;;;;;;;0.53;0.53;;;8.10;99.90;;;;;;5239523;28;20206;-48
2024/01/31 03:59:23;;;;;;;0.97;0.97;;;8.00;99.90;;;;;;5226164;28;20640;-50
2024/01/31 04:01:54;;;;;;;0.60;0.60;;;7.90;99.90;;;;;;5244273;28;20656;-48
2024/01/31 04:04:25;;;;;;;2.00;0.73;;;7.90;99.90;;;;;;5239861;28;20205;-49
2024/01/31 04:06:55;;;;;;;0.60;0.60;;;7.90;99.90;;;;;;5240941;28;20282;-48
2024/01/31 04:09:26;;;;;;;0.80;0.80;;;7.90;99.90;;;;;;5226103;28;20595;-50
2024/01/31 04:11:56;;;;;;;0.50;0.50;;;7.90;99.90;;;;;;5226626;28;20215;-49
2024/01/31 04:14:27;;;;;;;0.70;0.70;;;7.80;99.90;;;;;;5228541;28;20214;-49
2024/01/31 04:16:58;;;;;;;0.97;0.70;;;7.70;99.90;;;;;;5228667;28;20662;-49
2024/01/31 04:19:28;;;;;;;1.60;0.80;;;7.70;99.90;;;;;;5226285;28;20175;-48
2024/01/31 04:21:59;;;;;;;0.80;0.80;;;7.70;99.90;;;;;;5242833;28;20229;-49
2024/01/31 04:24:29;;;;;;;1.17;0.60;;;7.70;99.90;;;;;;5221035;28;20190;-50
2024/01/31 04:27:00;;;;;;;0.80;0.80;;;7.80;99.90;;;;;;5241490;28;20661;-48
2024/01/31 04:29:31;;;;;;;0.70;0.70;;;7.70;99.90;;;;;;5225971;28;20186;-49
2024/01/31 04:32:02;;;;;;;1.23;0.60;;;7.60;99.90;;;;;;5229354;28;20960;-49
2024/01/31 04:34:34;;;;;;;0.80;0.80;;;7.60;99.90;;;;;;5240544;28;20218;-49
2024/01/31 04:37:05;;;;;;;0.87;0.87;;;7.70;99.90;;;;;;5241458;28;20202;-49
2024/01/31 04:39:36;;;;;;;0.50;0.50;;;7.70;99.90;;;;;;5228605;28;20455;-49
2024/01/31 04:42:06;;;;;;;0.70;0.70;;;7.80;99.90;;;;;;5244286;28;20206;-48
2024/01/31 04:44:37;;;;;;;3.33;0.70;;;7.70;99.90;;;;;;5210358;28;20194;-50
2024/01/31 04:47:07;;;;;;;0.40;0.40;;;7.70;99.90;;;;;;5218583;28;20187;-48
2024/01/31 04:49:39;;;;;;;1.10;1.10;;;7.60;99.90;;;;;;5223228;28;20703;-49
2024/01/31 04:52:11;;;;;;;0.70;0.70;;;7.60;99.90;;;;;;5242764;28;20205;-49
2024/01/31 04:54:41;;;;;;;2.50;0.73;;;7.60;99.90;;;;;;5241620;28;21005;-47
2024/01/31 04:57:12;;;;;;;4.63;1.80;;;7.50;99.90;;;;;;5245581;28;20523;-49
2024/01/31 04:59:43;;;;;;;0.63;0.63;;;7.40;99.90;;;;;;5244371;28;20189;-48
2024/01/31 05:02:13;;;;;;;0.77;0.77;;;7.40;99.90;;;;;;5229719;28;20220;-47
2024/01/31 05:04:44;;;;;;;0.80;0.80;;;7.30;99.90;;;;;;5243086;28;20181;-48
2024/01/31 05:07:14;;;;;;;0.80;0.80;;;7.20;99.90;;;;;;5223291;28;20186;-49
2024/01/31 05:09:45;;;;;;;0.70;0.70;;;7.20;99.90;;;;;;5236138;28;20182;-50
2024/01/31 05:12:16;;;;;;;0.70;0.70;;;7.10;99.90;;;;;;5244180;22;20232;-51
2024/01/31 05:14:46;;;;;;;0.80;0.80;;;7.10;99.90;;;;;;5247558;28;20206;-50
2024/01/31 05:17:17;;;;;;;2.77;1.27;;;7.00;99.90;;;;;;5247728;28;20178;-53
2024/01/31 05:19:48;;;;;;;0.50;0.50;;;6.90;99.90;;;;;;5237658;28;20179;-51
2024/01/31 05:22:18;;;;;;;0.60;0.60;;;6.90;99.90;;;;;;5237207;28;20214;-53
2024/01/31 05:24:49;;;;;;;0.93;0.63;;;6.80;99.90;;;;;;5240033;28;20216;-51
2024/01/31 05:27:20;;;;;;;0.97;0.87;;;6.80;99.90;;;;;;5238157;28;20179;-50
2024/01/31 05:29:50;;;;;;;1.23;0.87;;;6.70;99.90;;;;;;5237574;28;20183;-51
2024/01/31 05:32:21;;;;;;;0.60;0.60;;;6.90;99.90;;;;;;5242802;28;20215;-51
2024/01/31 05:34:52;;;;;;;0.60;0.53;;;6.70;99.90;;;;;;5238250;28;20245;-51
2024/01/31 05:37:22;;;;;;;3.20;1.80;;;6.70;99.90;;;;;;5238220;28;20204;-53
2024/01/31 05:39:53;;;;;;;0.57;0.57;;;6.70;99.90;;;;;;5240480;28;20232;-51
2024/01/31 05:42:24;;;;;;;0.20;0.20;;;6.60;99.90;;;;;;5234198;28;20205;-51
2024/01/31 05:44:56;;;;;;;1.10;0.40;;;6.50;99.90;;;;;;5230531;28;20293;-52
2024/01/31 05:47:26;;;;;;;0.40;0.40;;;6.40;99.90;;;;;;5238017;28;20197;-51
2024/01/31 05:49:57;;;;;;;0.50;0.37;;;6.30;99.90;;;;;;5247371;28;20932;-52
2024/01/31 05:52:29;;;;;;;0.40;0.40;;;6.20;99.90;;;;;;5232527;28;20297;-51
2024/01/31 05:54:59;;;;;;;0.57;0.43;;;6.30;99.90;;;;;;5230552;28;20210;-51
2024/01/31 05:57:30;;;;;;;1.07;0.60;;;6.30;99.90;;;;;;5244822;28;20780;-51
2024/01/31 06:00:06;;;;;;;0.20;0.20;;;6.20;99.90;;;;;;5239570;28;20193;-52
2024/01/31 06:02:36;;;;;;;0.50;0.27;;;6.20;99.90;;;;;;5238565;28;20233;-53
2024/01/31 06:05:07;;;;;;;0.30;0.30;;;6.00;99.90;;;;;;5242334;28;20525;-51
2024/01/31 06:07:39;;;;;;;0.50;0.40;;;6.10;99.90;;;;;;5239205;28;20183;-51
2024/01/31 06:10:09;;;;;;;0.50;0.50;;;6.00;99.90;;;;;;5243867;28;20256;-51
2024/01/31 06:12:40;;;;;;;0.97;0.57;;;6.10;99.90;;;;;;5234427;28;20468;-51
2024/01/31 06:15:11;;;;;;;0.97;0.40;;;6.00;99.90;;;;;;5236760;28;20647;-51
2024/01/31 06:17:41;;;;;;;0.40;0.40;;;6.00;99.90;;;;;;5236432;28;20187;-52
2024/01/31 06:20:12;;;;;;;0.60;0.60;;;6.10;99.90;;;;;;5241740;28;20182;-50
2024/01/31 06:22:43;;;;;;;0.67;0.67;;;6.10;99.90;;;;;;5241181;28;20715;-51
2024/01/31 06:25:14;;;;;;;1.17;0.97;;;6.10;99.90;;;;;;5236924;28;20448;-51
2024/01/31 06:27:46;;;;;;;0.70;0.53;;;6.10;99.90;;;;;;5240131;28;20187;-50
2024/01/31 06:30:21;;;;;;;0.60;0.60;;;6.00;99.90;;;;;;5242024;28;20345;-53
2024/01/31 06:32:51;;;;;;;0.67;0.60;;;6.00;99.90;;;;;;5226191;28;20453;-51
2024/01/31 06:35:22;;;;;;;0.67;0.50;;;6.00;99.90;;;;;;5232435;28;20467;-50
2024/01/31 06:37:53;;;;;;;5.13;0.70;;;5.90;99.90;;;;;;5233020;28;20189;-51
2024/01/31 06:40:24;;;;;;;0.53;0.53;;;5.90;99.90;;;;;;5245992;28;20190;-51
2024/01/31 06:42:54;;;;;;;1.60;0.83;;;5.90;99.90;;;;;;5241296;28;20206;-52
2024/01/31 06:45:25;;;;;;;5.10;0.80;;;5.90;99.90;;;;;;5241366;28;20190;-51
2024/01/31 06:47:56;;;;;;;2.30;0.60;;;5.90;99.90;;;;;;5235665;28;20193;-51
2024/01/31 06:50:27;;;;;;;1.50;0.63;;;5.90;99.90;;;;;;5230696;28;20233;-51
2024/01/31 06:52:57;;;;;;;1.57;1.47;;;5.90;99.90;;;;;;5233763;28;20213;-52
2024/01/31 06:55:28;;;;;;;1.40;1.23;;;6.00;99.90;;;;;;5231902;28;20222;-51
2024/01/31 06:57:59;;;;;;;0.60;0.40;;;6.00;99.90;;;;;;5230608;28;20179;-52
2024/01/31 07:00:29;;;;;;;0.90;0.90;;;5.90;99.90;;;;;;5243719;28;20182;-51
2024/01/31 07:03:00;;;;;;;0.73;0.53;;;6.00;99.90;;;;;;5238421;28;20202;-54
2024/01/31 07:05:31;;;;;;;0.40;0.30;;;6.00;99.90;;;;;;5245749;28;20654;-51
2024/01/31 07:08:02;;;;;;;0.53;0.53;;;6.00;99.90;;;;;;5240930;28;20235;-52
2024/01/31 07:10:32;;;;;;;0.57;0.57;;;6.00;99.90;;;;;;5234852;28;20187;-51
2024/01/31 07:13:03;;;;;;;0.30;0.30;;;6.10;99.90;;;;;;5240546;28;20305;-50
2024/01/31 07:15:34;;;;;;;0.70;0.70;;;5.90;99.90;;;;;;5241801;28;20217;-49
2024/01/31 07:18:05;;;;;;;0.80;0.73;;;6.10;99.90;;;;;;5238052;28;20251;-52
2024/01/31 07:20:35;;;;;;;0.50;0.50;;;6.10;99.90;;;;;;5245727;28;20276;-50
2024/01/31 07:23:06;;;;;;;0.93;0.43;;;6.10;99.90;;;;;;5237514;28;20494;-51
2024/01/31 07:25:40;;;;;;;4.73;0.47;;;6.00;99.90;;;;;;5248443;28;20198;-50
2024/01/31 07:28:11;;;;;;;0.47;0.47;;;6.10;99.90;;;;;;5240349;28;20289;-51
2024/01/31 07:30:42;;;;;;;5.60;0.70;;;6.10;99.90;;;;;;5243353;28;20521;-50
2024/01/31 07:33:13;;;;;;;2.77;0.80;;;6.00;99.90;;;;;;5243237;28;20201;-51
2024/01/31 07:35:43;;;;;;;0.73;0.50;;;6.10;99.90;;;;;;5239228;28;20187;-51
2024/01/31 07:38:14;;;;;;;1.20;0.57;;;6.00;99.90;;;;;;5240832;28;20276;-51
2024/01/31 07:40:45;;;;;;;0.77;0.47;;;5.80;99.90;;;;;;5236629;28;20186;-51
2024/01/31 07:43:16;;;;;;;0.50;0.50;;;5.80;99.90;;;;;;5236291;28;20198;-51
2024/01/31 07:45:46;;;;;;;0.50;0.50;;;5.80;99.90;;;;;;5241023;28;20535;-51
2024/01/31 07:48:17;;;;;;;0.40;0.40;;;5.70;99.90;;;;;;5236122;28;20205;-51
2024/01/31 07:50:48;;;;;;;0.80;0.80;;;5.70;99.90;;;;;;5239791;28;20642;-51
2024/01/31 07:53:18;;;;;;;0.93;0.60;;;5.90;99.90;;;;;;5237930;28;20293;-52
2024/01/31 07:55:49;;;;;;;0.90;0.57;;;6.00;99.90;;;;;;5239016;28;20701;-51
2024/01/31 07:58:20;;;;;;;1.13;0.30;;;6.00;99.90;;;;;;5236165;28;20205;-52
2024/01/31 08:00:51;;;;;;;1.00;0.80;;;6.00;99.90;;;;;;5235033;28;20178;-52
2024/01/31 08:03:22;;;;;;;0.80;0.80;;;6.10;99.90;;;;;;5243979;28;21072;-51
2024/01/31 08:05:52;;;;;;;1.20;1.10;;;6.00;99.90;;;;;;5240567;28;20186;-52
2024/01/31 08:08:23;;;;;;;3.97;0.40;;;6.10;99.90;;;;;;5243078;28;20187;-51
2024/01/31 08:10:55;;;;;;;1.43;0.50;;;6.10;99.90;;;;;;5234082;28;20678;-51
2024/01/31 08:13:26;;;;;;;0.30;0.30;;;6.10;99.90;;;;;;5236957;28;20202;-52
2024/01/31 08:15:57;;;;;;;0.90;0.50;;;5.90;99.90;;;;;;5236670;28;20437;-52
2024/01/31 08:18:28;;;;;;;0.30;0.30;;;6.00;99.90;;;;;;5232968;28;20202;-54
2024/01/31 08:20:58;;;;;;;0.33;0.33;;;6.10;99.90;;;;;;5242414;28;20231;-51
2024/01/31 08:23:29;;;;;;;0.47;0.30;;;6.10;99.90;;;;;;5234986;28;20198;-51
2024/01/31 08:26:00;;;;;;;0.70;0.70;;;6.10;99.90;;;;;;5237978;28;20228;-51
2024/01/31 08:28:31;;;;;;;0.70;0.70;;;6.20;99.90;;;;;;5232962;28;20206;-52
2024/01/31 08:31:02;;;;;;;5.20;0.60;;;6.00;99.90;;;;;;5237386;28;20465;-51
2024/01/31 08:33:33;;;;;;;0.40;0.40;;;5.90;99.90;;;;;;5238642;28;20717;-51
2024/01/31 08:36:04;;;;;;;1.73;0.77;;;5.90;99.90;;;;;;5235220;28;20179;-52
2024/01/31 08:38:37;;;;;;;1.80;0.57;;;6.00;99.90;;;;;;5245769;28;20448;-52
2024/01/31 08:41:08;;;;;;;2.70;0.80;;;6.10;99.90;;;;;;5236521;28;20441;-51
2024/01/31 08:43:39;;;;;;;0.43;0.43;;;6.10;99.90;;;;;;5232868;28;20535;-50
2024/01/31 08:46:11;;;;;;;0.50;0.50;;;6.00;99.90;;;;;;5240696;28;20182;-50
2024/01/31 08:48:42;;;;;;;2.10;0.50;;;5.70;99.90;;;;;;5248204;28;20485;-51
2024/01/31 08:51:14;;;;;;;0.50;0.50;;;5.80;99.90;;;;;;5244851;28;20425;-53
2024/01/31 08:53:45;;;;;;;1.07;0.80;;;5.70;99.90;;;;;;5237644;28;20191;-51
2024/01/31 08:56:16;;;;;;;0.53;0.53;;;5.60;99.90;;;;;;5241994;28;20437;-52
2024/01/31 08:58:46;;;;;;;1.07;0.60;;;5.60;99.90;;;;;;5239874;28;20239;-52
2024/01/31 09:01:17;;;;;;;0.70;0.70;;;5.50;99.90;;;;;;5238701;28;20175;-53
2024/01/31 09:03:49;;;;;;;0.87;0.60;;;5.60;99.90;;;;;;5242580;28;20237;-49
2024/01/31 09:06:20;;;;;;;0.73;0.73;;;5.60;99.90;;;;;;5230206;28;20448;-52
2024/01/31 09:08:51;;;;;;;0.93;0.80;;;5.60;99.90;;;;;;5231144;28;20519;-53
2024/01/31 09:11:22;;;;;;;0.70;0.70;;;5.60;99.90;;;;;;5236930;28;20439;-48
2024/01/31 09:13:53;;;;;;;6.00;0.90;;;5.60;99.90;;;;;;5217634;28;21039;-52
2024/01/31 09:16:23;;;;;;;0.80;0.60;;;5.50;99.90;;;;;;5230916;28;20182;-52
2024/01/31 09:18:54;;;;;;;0.57;0.57;;;5.80;99.90;;;;;;5235802;28;20181;-49
2024/01/31 09:21:28;;;;;;;1.03;0.73;;;6.00;99.90;;;;;;5231544;28;20183;-52
2024/01/31 09:23:58;;;;;;;1.87;1.10;;;6.10;99.90;;;;;;5234110;28;20945;-51
2024/01/31 09:26:29;;;;;;;0.50;0.50;;;6.10;99.90;;;;;;5233782;28;20439;-51
2024/01/31 09:29:00;;;;;;;0.33;0.33;;;6.10;99.90;;;;;;5239253;28;20239;-51
2024/01/31 09:31:31;;;;;;;0.67;0.47;;;6.10;99.90;;;;;;5240757;28;20209;-50
2024/01/31 09:34:02;;;;;;;3.40;1.23;;;6.20;99.90;;;;;;5231092;28;21025;-51
2024/01/31 09:36:33;;;;;;;0.40;0.30;;;6.40;99.90;;;;;;5239058;28;20432;-51
2024/01/31 09:39:05;;;;;;;0.90;0.90;;;6.40;99.90;;;;;;5232981;28;20424;-50
2024/01/31 09:41:36;;;;;;;1.20;0.70;;;6.20;99.90;;;;;;5241191;28;20290;-52
2024/01/31 09:44:07;;;;;;;0.40;0.40;;;6.10;99.90;;;;;;5234355;28;20441;-51
2024/01/31 09:46:40;;;;;;;1.03;0.93;;;5.90;99.90;;;;;;5240126;28;20183;-51
2024/01/31 09:49:11;;;;;;;0.80;0.80;;;5.90;99.90;;;;;;5240125;28;20437;-51
2024/01/31 09:51:41;;;;;;;1.80;0.80;;;6.00;99.90;;;;;;5232490;28;20528;-51
2024/01/31 09:54:13;;;;;;;0.83;0.70;;;6.00;99.90;;;;;;5245066;28;20212;-50
2024/01/31 09:56:44;;;;;;;0.90;0.90;;;6.00;99.90;;;;;;5239117;28;20181;-51
2024/01/31 09:59:15;;;;;;;1.17;0.57;;;5.90;99.90;;;;;;5235434;28;20442;-52
2024/01/31 10:01:47;;;;;;;4.43;0.47;;;5.70;99.90;;;;;;5235827;28;20618;-53
2024/01/31 10:04:18;;;;;;;0.50;0.50;;;5.70;99.90;;;;;;5233245;28;20445;-53
2024/01/31 10:06:48;;;;;;;3.33;0.50;;;5.80;99.90;;;;;;5235287;28;20440;-51
2024/01/31 10:09:20;;;;;;;1.20;1.10;;;6.10;99.90;;;;;;5240033;28;20177;-51
2024/01/31 10:11:51;;;;;;;1.00;0.90;;;6.60;99.90;;;;;;5233764;28;20541;-52
2024/01/31 10:14:22;;;;;;;0.50;0.47;;;7.00;99.90;;;;;;5234782;28;20503;-52
2024/01/31 10:16:53;;;;;;;4.17;1.20;;;6.90;99.90;;;;;;5239200;28;20788;-51
2024/01/31 10:19:24;;;;;;;2.63;0.73;;;6.90;99.90;;;;;;5239858;28;20960;-51
2024/01/31 10:21:57;;;;;;;0.60;0.53;;;6.90;99.90;;;;;;5239692;28;20502;-51
2024/01/31 10:24:28;;;;;;;0.97;0.97;;;6.80;99.90;;;;;;5258749;28;20516;-53
2024/01/31 10:26:59;;;;;;;1.23;0.77;;;6.80;99.90;;;;;;5250390;28;20412;-51
2024/01/31 10:29:30;;;;;;;0.53;0.40;;;6.80;99.90;;;;;;5240589;28;20265;-51
2024/01/31 10:32:03;;;;;;;2.23;2.00;;;6.70;99.90;;;;;;5239071;28;20670;-51
2024/01/31 10:34:34;;;;;;;2.60;0.70;;;6.80;99.90;;;;;;5234276;28;20252;-50
2024/01/31 10:37:07;;;;;;;0.90;0.63;;;6.90;99.90;;;;;;5232177;28;20433;-54
2024/01/31 10:39:39;;;;;;;1.67;1.43;;;7.10;99.90;;;;;;5246217;28;20421;-52
2024/01/31 10:42:10;;;;;;;1.27;0.77;;;7.20;99.90;;;;;;5234509;28;20433;-52
2024/01/31 10:44:43;;;;;;;0.53;0.53;;;7.10;99.90;;;;;;5242850;28;20432;-51
2024/01/31 10:47:14;;;;;;;0.70;0.70;;;7.10;99.90;;;;;;5237573;28;20429;-53
2024/01/31 10:49:45;;;;;;;2.60;0.63;;;7.00;99.90;;;;;;5227969;28;20431;-50
2024/01/31 10:52:20;;;;;;;6.67;0.90;;;6.90;99.90;;;;;;5245289;28;20277;-52
2024/01/31 10:54:58;;;;;;;1.73;0.87;;;7.10;99.90;;;;;;5243703;28;20197;-50
2024/01/31 10:57:31;;;;;;;1.07;1.07;;;6.90;99.90;;;;;;5232325;28;20772;-52
2024/01/31 11:00:03;;;;;;;1.17;0.60;;;6.70;99.90;;;;;;5242744;28;20433;-50
2024/01/31 11:02:35;;;;;;;4.77;1.13;;;6.60;99.90;;;;;;5241863;28;20870;-51
2024/01/31 11:05:06;;;;;;;1.67;1.57;;;6.40;99.90;;;;;;5243507;28;20433;-51
2024/01/31 11:07:46;;;;;;;6.23;2.33;;;6.40;99.90;;;;;;5245475;28;21643;-50
2024/01/31 11:10:22;;;;;;;7.50;2.30;;;6.30;99.90;;;;;;5237009;28;20685;-53
2024/01/31 11:13:05;;;;;;;5.37;2.57;;;6.00;99.90;;;;;;5235518;28;21010;-51
2024/01/31 11:15:36;;;;;;;6.60;1.97;;;6.00;99.90;;;;;;5245686;28;20937;-54
2024/01/31 11:18:09;;;;;;;17.93;4.70;;;6.00;99.90;;;;;;5263376;28;20421;-52
2024/01/31 11:20:44;;;;;;;5.63;2.33;;;6.00;99.90;;;;;;5240157;28;20520;-53
2024/01/31 11:23:16;;;;;;;5.70;2.40;;;6.10;99.90;;;;;;5240916;28;20498;-53
2024/01/31 11:25:47;;;;;;;4.10;1.97;;;6.10;99.90;;;;;;5233458;28;20508;-53
2024/01/31 11:28:19;;;;;;;7.83;3.03;;;6.10;99.90;;;;;;5234582;28;20531;-52
2024/01/31 11:30:52;;;;;;;15.40;5.37;;;6.10;99.90;;;;;;5240774;28;20214;-52
2024/01/31 11:33:22;;;;;;;6.87;2.70;;;6.20;99.90;;;;;;5244357;28;20854;-53
2024/01/31 11:35:53;;;;;;;4.20;2.40;;;6.30;99.90;;;;;;5234763;28;20437;-52
2024/01/31 11:38:24;;;;;;;5.97;1.40;;;6.20;99.90;;;;;;5248471;28;20330;-52
2024/01/31 11:40:56;;;;;;;12.03;2.17;;;6.20;99.90;;;;;;5239046;28;20179;-52
2024/01/31 11:43:26;;;;;;;3.60;2.03;;;6.30;99.90;;;;;;5224879;28;20507;-51
2024/01/31 11:45:57;;;;;;;5.37;2.60;;;6.30;99.90;;;;;;5240684;28;20717;-54
2024/01/31 11:48:28;;;;;;;7.83;1.73;;;6.30;99.90;;;;;;5233938;28;20186;-51
2024/01/31 11:50:59;;;;;;;11.30;1.63;;;6.40;99.90;;;;;;5240902;28;20730;-52
2024/01/31 11:53:30;;;;;;;6.43;1.23;;;6.40;99.90;;;;;;5243726;28;20206;-52
2024/01/31 11:56:01;;;;;;;6.13;1.50;;;6.50;99.90;;;;;;5231597;28;20436;-52
2024/01/31 11:58:32;;;;;;;8.40;2.53;;;6.40;99.90;;;;;;5244990;28;20183;-53
2024/01/31 12:01:03;;;;;;;6.90;2.10;;;6.50;99.90;;;;;;5229258;28;20413;-51
2024/01/31 12:03:34;;;;;;;14.43;5.10;;;6.40;99.90;;;;;;5229802;28;20437;-52
2024/01/31 12:06:05;;;;;;;5.70;2.20;;;6.50;99.90;;;;;;5232595;28;20436;-52
2024/01/31 12:08:36;;;;;;;3.70;1.60;;;6.50;99.90;;;;;;5241697;28;20186;-53
2024/01/31 12:11:09;;;;;;;5.03;2.07;;;6.40;99.90;;;;;;5247472;28;21926;-52
2024/01/31 12:13:40;;;;;;;3.50;2.10;;;6.40;99.90;;;;;;5245730;28;20460;-51
2024/01/31 12:16:11;;;;;;;2.00;1.83;;;6.40;99.90;;;;;;5237742;28;20424;-53
2024/01/31 12:18:42;;;;;;;3.60;1.73;;;6.60;99.90;;;;;;5242578;28;20182;-51
2024/01/31 12:21:12;;;;;;;2.83;2.60;;;6.60;99.90;;;;;;5240932;28;20481;-53
2024/01/31 12:23:43;;;;;;;4.20;2.40;;;6.60;99.90;;;;;;5236267;28;20190;-51
2024/01/31 12:26:14;;;;;;;3.07;1.73;;;6.60;99.90;;;;;;5237754;28;20681;-52
2024/01/31 12:28:57;;;;;;;11.63;3.33;;;6.60;99.90;;;;;;5237805;28;20643;-52
2024/01/31 12:31:28;;;;;;;3.97;2.30;;;6.40;99.90;;;;;;5235463;28;20202;-51
2024/01/31 12:34:00;;;;;;;5.00;2.20;;;6.40;99.90;;;;;;5244592;28;20452;-51
2024/01/31 12:36:30;;;;;;;2.80;1.90;;;6.50;99.90;;;;;;5240107;28;20622;-52
2024/01/31 12:39:01;;;;;;;2.33;1.60;;;6.50;99.90;;;;;;5242486;28;20428;-53
2024/01/31 12:41:32;;;;;;;4.40;1.30;;;6.50;99.90;;;;;;5239419;28;20210;-52
2024/01/31 12:44:02;;;;;;;3.63;1.87;;;6.50;99.90;;;;;;5236227;28;20638;-54
2024/01/31 12:46:33;;;;;;;4.60;1.80;;;6.60;99.90;;;;;;5231899;28;20194;-52
2024/01/31 12:49:04;;;;;;;4.83;1.93;;;6.60;99.90;;;;;;5232537;28;20190;-52
2024/01/31 12:51:35;;;;;;;6.20;1.87;;;6.70;99.90;;;;;;5244231;28;20241;-51
2024/01/31 12:54:05;;;;;;;12.20;2.50;;;6.80;99.90;;;;;;5238159;28;20624;-53
2024/01/31 12:56:38;;;;;;;5.60;1.90;;;6.80;99.90;;;;;;5242377;28;20236;-52
2024/01/31 12:59:09;;;;;;;2.30;2.13;;;6.90;99.90;;;;;;5240221;28;20178;-51
2024/01/31 13:01:40;;;;;;;4.63;1.90;;;6.90;99.90;;;;;;5239911;28;20464;-52
2024/01/31 13:04:12;;;;;;;5.30;2.00;;;6.90;99.90;;;;;;5242059;28;20191;-52
2024/01/31 13:06:43;;;;;;;8.43;2.60;;;6.90;99.90;;;;;;5228140;28;20465;-52
2024/01/31 13:09:14;;;;;;;1.90;1.33;;;6.90;99.90;;;;;;5240570;28;20445;-52
2024/01/31 13:11:45;;;;;;;3.70;1.90;;;6.90;99.90;;;;;;5238764;28;20457;-51
2024/01/31 13:14:16;;;;;;;3.57;1.83;;;6.90;99.90;;;;;;5227044;28;20554;-53